Map

Track Data

SID SEASON NUMBER BASIN SUBBASIN NAME ISO_TIME NATURE LAT LON WMO_WIND WMO_PRES WMO_AGENCY TRACK_TYPE DIST2LAND LANDFALL IFLAG USA_AGENCY USA_ATCF_ID USA_LAT USA_LON USA_RECORD USA_STATUS USA_WIND USA_PRES USA_SSHS USA_R34_NE USA_R34_SE USA_R34_SW USA_R34_NW USA_R50_NE USA_R50_SE USA_R50_SW USA_R50_NW USA_R64_NE USA_R64_SE USA_R64_SW USA_R64_NW USA_POCI USA_ROCI USA_RMW USA_EYE TOKYO_LAT TOKYO_LON TOKYO_GRADE TOKYO_WIND TOKYO_PRES TOKYO_R50_DIR TOKYO_R50_LONG TOKYO_R50_SHORT TOKYO_R30_DIR TOKYO_R30_LONG TOKYO_R30_SHORT TOKYO_LAND CMA_LAT CMA_LON CMA_CAT CMA_WIND CMA_PRES HKO_LAT HKO_LON HKO_CAT HKO_WIND HKO_PRES NEWDELHI_LAT NEWDELHI_LON NEWDELHI_GRADE NEWDELHI_WIND NEWDELHI_PRES NEWDELHI_CI NEWDELHI_DP NEWDELHI_POCI REUNION_LAT REUNION_LON REUNION_TYPE REUNION_WIND REUNION_PRES REUNION_TNUM REUNION_CI REUNION_RMW REUNION_R34_NE REUNION_R34_SE REUNION_R34_SW REUNION_R34_NW REUNION_R50_NE REUNION_R50_SE REUNION_R50_SW REUNION_R50_NW REUNION_R64_NE REUNION_R64_SE REUNION_R64_SW REUNION_R64_NW BOM_LAT BOM_LON BOM_TYPE BOM_WIND BOM_PRES BOM_TNUM BOM_CI BOM_RMW BOM_R34_NE BOM_R34_SE BOM_R34_SW BOM_R34_NW BOM_R50_NE BOM_R50_SE BOM_R50_SW BOM_R50_NW BOM_R64_NE BOM_R64_SE BOM_R64_SW BOM_R64_NW BOM_ROCI BOM_POCI BOM_EYE BOM_POS_METHOD BOM_PRES_METHOD NADI_LAT NADI_LON NADI_CAT NADI_WIND NADI_PRES WELLINGTON_LAT WELLINGTON_LON WELLINGTON_WIND WELLINGTON_PRES DS824_LAT DS824_LON DS824_STAGE DS824_WIND DS824_PRES TD9636_LAT TD9636_LON TD9636_STAGE TD9636_WIND TD9636_PRES TD9635_LAT TD9635_LON TD9635_WIND TD9635_PRES TD9635_ROCI NEUMANN_LAT NEUMANN_LON NEUMANN_CLASS NEUMANN_WIND NEUMANN_PRES MLC_LAT MLC_LON MLC_CLASS MLC_WIND MLC_PRES USA_GUST BOM_GUST BOM_GUST_PER REUNION_GUST REUNION_GUST_PER USA_SEAHGT USA_SEARAD_NE USA_SEARAD_SE USA_SEARAD_SW USA_SEARAD_NW STORM_SPEED STORM_DIR
1968241N12259 1968 79 EP MM LIZA 1968-08-28 00:00:00 TS 12.1000 -101.200 25 hurdat_epa main 539 532 O________OO___ hurdat_epa EP121968 12.1000 -101.200 TD 25 -1 12.1000 -101.200 TC 25 12.1000 -101.200 1 4 299
1968241N12259 1968 79 EP MM LIZA 1968-08-28 03:00:00 TS 12.2032 -101.391 main 536 529 P________PP___ EP121968 12.2126 -101.407 TD 25 -1 12.2126 -101.407 TC 25 12.1653 -101.327 1 4 297
1968241N12259 1968 79 EP MM LIZA 1968-08-28 06:00:00 TS 12.2869 -101.578 25 hurdat_epa main 533 533 O________OP___ hurdat_epa EP121968 12.3000 -101.600 TD 25 -1 12.3000 -101.600 TC 25 12.2345 -101.492 1 4 290
1968241N12259 1968 79 EP MM LIZA 1968-08-28 09:00:00 TS 12.3421 -101.780 main 541 531 P________PP___ EP121968 12.3498 -101.790 TD 25 -1 12.3498 -101.790 TC 25 12.3115 -101.737 1 5 283
1968241N12259 1968 79 EP MM LIZA 1968-08-28 12:00:00 TS 12.4000 -102.100 25 hurdat_epa main 546 546 O________OO___ hurdat_epa EP121968 12.4000 -102.100 TD 25 -1 12.4000 -102.100 TC 25 12.4000 -102.100 2 8 280
1968241N12259 1968 79 EP MM LIZA 1968-08-28 15:00:00 TS 12.4886 -102.628 main 560 560 P________PP___ EP121968 12.4850 -102.633 TD 35 0 12.4850 -102.633 TC 35 12.5027 -102.608 2 12 280
1968241N12259 1968 79 EP MM LIZA 1968-08-28 18:00:00 TS 12.6040 -103.287 45 hurdat_epa main 576 575 O________OP___ hurdat_epa EP121968 12.6000 -103.300 TS 45 0 12.6000 -103.300 TC 45 12.6202 -103.235 2 13 281
1968241N12259 1968 79 EP MM LIZA 1968-08-28 21:00:00 TS 12.7443 -103.965 main 601 592 P________PP___ EP121968 12.7423 -103.970 TS 45 0 12.7423 -103.970 TC 45 12.7525 -103.945 2 14 282
1968241N12259 1968 79 EP MM LIZA 1968-08-29 00:00:00 TS 12.9000 -104.700 45 hurdat_epa main 613 613 O________OO___ hurdat_epa EP121968 12.9000 -104.700 TS 45 0 12.9000 -104.700 TC 45 12.9000 -104.700 2 15 281
1968241N12259 1968 79 EP MM LIZA 1968-08-29 03:00:00 TS 13.0437 -105.488 main 630 620 P________PP___ EP121968 13.0425 -105.493 TS 45 0 13.0425 -105.493 TC 45 13.0488 -105.468 2 16 281
1968241N12259 1968 79 EP MM LIZA 1968-08-29 06:00:00 TS 13.2026 -106.293 45 hurdat_epa main 644 644 O________OP___ hurdat_epa EP121968 13.2000 -106.300 TS 45 0 13.2000 -106.300 TC 45 13.2131 -106.265 2 16 283
1968241N12259 1968 79 EP MM LIZA 1968-08-29 09:00:00 TS 13.3871 -107.075 main 670 670 P________PP___ EP121968 13.3849 -107.080 TS 45 0 13.3849 -107.080 TC 45 13.3957 -107.055 2 15 285
1968241N12259 1968 79 EP MM LIZA 1968-08-29 12:00:00 TS 13.6000 -107.800 45 hurdat_epa main 698 697 O________OO___ hurdat_epa EP121968 13.6000 -107.800 TS 45 0 13.6000 -107.800 TC 45 13.6000 -107.800 3 14 289
1968241N12259 1968 79 EP MM LIZA 1968-08-29 15:00:00 TS 13.8401 -108.431 main 715 712 P________PP___ EP121968 13.8422 -108.423 TS 60 0 13.8422 -108.423 TC 60 13.8316 -108.463 3 13 293
1968241N12259 1968 79 EP MM LIZA 1968-08-29 18:00:00 TS 14.0968 -109.015 75 hurdat_epa main 725 723 O________OP___ hurdat_epa EP121968 14.1000 -109.000 HU 75 1 14.1000 -109.000 TC 75 14.0839 -109.075 3 13 294
1968241N12259 1968 79 EP MM LIZA 1968-08-29 21:00:00 TS 14.3548 -109.622 main 741 741 P________PP___ EP121968 14.3575 -109.615 HU 75 1 14.3575 -109.615 TC 75 14.3443 -109.650 3 13 294
1968241N12259 1968 79 EP MM LIZA 1968-08-30 00:00:00 TS 14.6000 -110.200 75 hurdat_epa main 770 770 O________OO___ hurdat_epa EP121968 14.6000 -110.200 HU 75 1 14.6000 -110.200 TC 75 14.6000 -110.200 4 11 293
1968241N12259 1968 79 EP MM LIZA 1968-08-30 03:00:00 TS 14.8052 -110.712 main 793 793 P________PP___ EP121968 14.7997 -110.708 HU 75 1 14.7997 -110.708 TC 75 14.8272 -110.727 4 11 293
1968241N12259 1968 79 EP MM LIZA 1968-08-30 06:00:00 TS 15.0097 -111.207 75 hurdat_epa main 817 817 O________OP___ hurdat_epa EP121968 15.0000 -111.200 HU 75 1 15.0000 -111.200 TC 75 15.0486 -111.236 4 11 294
1968241N12259 1968 79 EP MM LIZA 1968-08-30 09:00:00 TS 15.2480 -111.733 main 845 845 P________PP___ EP121968 15.2423 -111.728 HU 75 1 15.2423 -111.728 TC 75 15.2708 -111.752 4 12 295
1968241N12259 1968 79 EP MM LIZA 1968-08-30 12:00:00 TS 15.5000 -112.300 75 hurdat_epa main 862 853 O________OO___ hurdat_epa EP121968 15.5000 -112.300 HU 75 1 15.5000 -112.300 TC 75 15.5000 -112.300 4 13 293
1968241N12259 1968 79 EP MM LIZA 1968-08-30 15:00:00 TS 15.7494 -112.935 main 860 851 P________PP___ EP121968 15.7499 -112.935 HU 75 1 15.7499 -112.935 TC 75 15.7472 -112.934 4 13 292
1968241N12259 1968 79 EP MM LIZA 1968-08-30 18:00:00 TS 16.0001 -113.600 75 hurdat_epa main 859 853 O________OP___ hurdat_epa EP121968 16.0000 -113.600 HU 75 1 16.0000 -113.600 TC 75 16.0005 -113.600 4 14 292
1968241N12259 1968 79 EP MM LIZA 1968-08-30 21:00:00 TS 16.2566 -114.265 main 864 864 P________PP___ EP121968 16.2574 -114.265 HU 75 1 16.2574 -114.265 TC 75 16.2535 -114.266 4 13 292
1968241N12259 1968 79 EP MM LIZA 1968-08-31 00:00:00 TS 16.5000 -114.900 75 hurdat_epa main 880 880 O________OO___ hurdat_epa EP121968 16.5000 -114.900 HU 75 1 16.5000 -114.900 TC 75 16.5000 -114.900 4 12 291
1968241N12259 1968 79 EP MM LIZA 1968-08-31 03:00:00 TS 16.7053 -115.472 main 900 898 P________PP___ EP121968 16.6998 -115.473 HU 75 1 16.6998 -115.473 TC 75 16.7274 -115.470 4 11 291
1968241N12259 1968 79 EP MM LIZA 1968-08-31 06:00:00 TS 16.9098 -116.001 75 hurdat_epa main 918 917 O________OP___ hurdat_epa EP121968 16.9000 -116.000 HU 75 1 16.9000 -116.000 TC 75 16.9491 -116.003 4 11 294
1968241N12259 1968 79 EP MM LIZA 1968-08-31 09:00:00 TS 17.1481 -116.508 main 938 930 P________PP___ EP121968 17.1423 -116.508 HU 75 1 17.1423 -116.508 TC 75 17.1712 -116.510 4 11 297
1968241N12259 1968 79 EP MM LIZA 1968-08-31 12:00:00 TS 17.4000 -117.000 75 hurdat_epa main 954 954 O________OO___ hurdat_epa EP121968 17.4000 -117.000 HU 75 1 17.4000 -117.000 TC 75 17.4000 -117.000 4 11 298
1968241N12259 1968 79 EP MM LIZA 1968-08-31 15:00:00 TS 17.6509 -117.510 main 961 961 P________PP___ EP121968 17.6499 -117.508 HU 75 1 17.6499 -117.508 TC 75 17.6549 -117.518 4 11 298
1968241N12259 1968 79 EP MM LIZA 1968-08-31 18:00:00 TS 17.9030 -118.003 75 hurdat_epa main 975 972 O________OP___ hurdat_epa EP121968 17.9000 -118.000 HU 75 1 17.9000 -118.000 TC 75 17.9150 -118.017 4 11 299
1968241N12259 1968 79 EP MM LIZA 1968-08-31 21:00:00 TS 18.1655 -118.481 main 982 982 P________PP___ EP121968 18.1650 -118.480 HU 75 1 18.1650 -118.480 TC 75 18.1675 -118.483 4 10 300
1968241N12259 1968 79 EP MM LIZA 1968-09-01 00:00:00 TS 18.4000 -118.900 75 hurdat_epa main 994 994 O________OO___ hurdat_epa EP121968 18.4000 -118.900 HU 75 1 18.4000 -118.900 TC 75 18.4000 -118.900 4 8 299
1968241N12259 1968 79 EP MM LIZA 1968-09-01 03:00:00 TS 18.5643 -119.231 main 1001 1001 P________PP___ EP121968 18.5573 -119.223 HU 75 1 18.5573 -119.223 TC 75 18.5920 -119.263 4 7 298
1968241N12259 1968 79 EP MM LIZA 1968-09-01 06:00:00 TS 18.7129 -119.515 75 hurdat_epa main 1016 1016 O________OP___ hurdat_epa EP121968 18.7000 -119.500 HU 75 1 18.7000 -119.500 TC 75 18.7644 -119.576 4 7 301
1968241N12259 1968 79 EP MM LIZA 1968-09-01 09:00:00 TS 18.8999 -119.822 main 1024 1024 P________PP___ EP121968 18.8925 -119.815 HU 75 1 18.8925 -119.815 TC 75 18.9296 -119.850 4 7 305
1968241N12259 1968 79 EP MM LIZA 1968-09-01 12:00:00 TS 19.1000 -120.100 75 hurdat_epa main 1033 1033 O________OO___ hurdat_epa EP121968 19.1000 -120.100 HU 75 1 19.1000 -120.100 TC 75 19.1000 -120.100 4 6 311
1968241N12259 1968 79 EP MM LIZA 1968-09-01 15:00:00 TS 19.2984 -120.311 main 1036 1036 P________PP___ EP121968 19.2999 -120.308 HU 75 1 19.2999 -120.308 TC 75 19.2924 -120.327 4 6 316
1968241N12259 1968 79 EP MM LIZA 1968-09-01 18:00:00 TS 19.4984 -120.507 75 hurdat_epa main 1039 1039 O________OP___ hurdat_epa EP121968 19.5000 -120.500 HU 75 1 19.5000 -120.500 TC 75 19.4919 -120.536 4 6 315
1968241N12259 1968 79 EP MM LIZA 1968-09-01 21:00:00 TS 19.6990 -120.732 main 1043 1043 P________PP___ EP121968 19.6999 -120.728 HU 75 1 19.6999 -120.728 TC 75 19.6955 -120.752 4 6 311
1968241N12259 1968 79 EP MM LIZA 1968-09-02 00:00:00 TS 19.9000 -121.000 75 hurdat_epa main 1056 1054 O________OO___ hurdat_epa EP121968 19.9000 -121.000 HU 75 1 19.9000 -121.000 TC 75 19.9000 -121.000 2 7 305
1968241N12259 1968 79 EP MM LIZA 1968-09-02 03:00:00 TS 20.1017 -121.337 main 1059 1057 P________PP___ EP121968 20.1000 -121.335 HU 60 0 20.1000 -121.335 TC 60 20.1086 -121.346 2 8 301
1968241N12259 1968 79 EP MM LIZA 1968-09-02 06:00:00 TS 20.3031 -121.704 45 hurdat_epa main 1070 1068 O________OP___ hurdat_epa EP121968 20.3000 -121.700 TS 45 0 20.3000 -121.700 TC 45 20.3157 -121.722 2 8 300
1968241N12259 1968 79 EP MM LIZA 1968-09-02 09:00:00 TS 20.5090 -122.081 main 1079 1076 P________PP___ EP121968 20.5076 -122.080 TS 45 0 20.5076 -122.080 TC 45 20.5149 -122.087 2 8 301
1968241N12259 1968 79 EP MM LIZA 1968-09-02 12:00:00 TS 20.7000 -122.400 45 hurdat_epa main 1083 1081 O________OO___ hurdat_epa EP121968 20.7000 -122.400 TS 45 0 20.7000 -122.400 TC 45 20.7000 -122.400 2 6 307
1968241N12259 1968 79 EP MM LIZA 1968-09-02 15:00:00 TS 20.8587 -122.585 main 1081 1080 P________PP___ EP121968 20.8574 -122.580 TS 45 0 20.8574 -122.580 TC 45 20.8639 -122.604 2 4 316
1968241N12259 1968 79 EP MM LIZA 1968-09-02 18:00:00 TS 21.0029 -122.711 45 hurdat_epa main 1080 1079 O________OP___ hurdat_epa EP121968 21.0000 -122.700 TS 45 0 21.0000 -122.700 TC 45 21.0144 -122.753 2 4 319
1968241N12259 1968 79 EP MM LIZA 1968-09-02 21:00:00 TS 21.1515 -122.855 main 1079 1079 P________PP___ EP121968 21.1500 -122.850 TS 45 0 21.1500 -122.850 TC 45 21.1578 -122.876 2 4 318
1968241N12259 1968 79 EP MM LIZA 1968-09-03 00:00:00 TS 21.3000 -123.000 45 hurdat_epa main 1079 1079 O________OO___ hurdat_epa EP121968 21.3000 -123.000 TS 45 0 21.3000 -123.000 TC 45 21.3000 -123.000 2 4 318
1968241N12259 1968 79 EP MM LIZA 1968-09-03 03:00:00 TS 21.4491 -123.146 main 1079 1079 P________PP___ EP121968 21.4500 -123.143 TS 45 0 21.4500 -123.143 TC 45 21.4459 -123.160 2 4 316
1968241N12259 1968 79 EP MM LIZA 1968-09-03 06:00:00 TS 21.5985 -123.306 45 hurdat_epa main 1079 1079 O________OP___ hurdat_epa EP121968 21.6000 -123.300 TS 45 0 21.6000 -123.300 TC 45 21.5924 -123.328 2 4 313
1968241N12259 1968 79 EP MM LIZA 1968-09-03 09:00:00 TS 21.7485 -123.495 main 1088 1081 P________PP___ EP121968 21.7500 -123.493 TS 45 0 21.7500 -123.493 TC 45 21.7427 -123.507 2 5 309
1968241N12259 1968 79 EP MM LIZA 1968-09-03 12:00:00 TS 21.9000 -123.700 45 hurdat_epa main 1090 1090 O________OO___ hurdat_epa EP121968 21.9000 -123.700 TS 45 0 21.9000 -123.700 TC 45 21.9000 -123.700 2 5 309
1968241N12259 1968 79 EP MM LIZA 1968-09-03 15:00:00 TS 22.0451 -123.895 main 1099 1093 P________PP___ EP121968 22.0424 -123.893 TS 45 0 22.0424 -123.893 TC 45 22.0555 -123.903 2 5 309
1968241N12259 1968 79 EP MM LIZA 1968-09-03 18:00:00 TS 22.2040 -124.104 45 hurdat_epa main 1103 1103 O________OP___ hurdat_epa EP121968 22.2000 -124.100 TS 45 0 22.2000 -124.100 TC 45 22.2199 -124.120 2 5 310
1968241N12259 1968 79 EP MM LIZA 1968-09-03 21:00:00 TS 22.3878 -124.339 main 1107 1107 P________PP___ EP121968 22.3850 -124.335 TS 45 0 22.3850 -124.335 TC 45 22.3993 -124.353 2 6 311
1968241N12259 1968 79 EP MM LIZA 1968-09-04 00:00:00 TS 22.6000 -124.600 45 hurdat_epa main 1120 1120 O________OO___ hurdat_epa EP121968 22.6000 -124.600 TS 45 0 22.6000 -124.600 TC 45 22.6000 -124.600 2 7 312
1968241N12259 1968 79 EP MM LIZA 1968-09-04 03:00:00 TS 22.8446 -124.897 main 1134 1129 P________PP___ EP121968 22.8425 -124.900 TS 45 0 22.8425 -124.900 TC 45 22.8530 -124.884 2 7 313
1968241N12259 1968 79 EP MM LIZA 1968-09-04 06:00:00 TS 23.1046 -125.196 45 hurdat_epa main 1144 1139 O________OP___ hurdat_epa EP121968 23.1000 -125.200 TS 45 0 23.1000 -125.200 TC 45 23.1228 -125.179 2 8 315
1968241N12259 1968 79 EP MM LIZA 1968-09-04 09:00:00 TS 23.3742 -125.476 main 1156 1156 P________PP___ EP121968 23.3725 -125.480 TS 45 0 23.3725 -125.480 TC 45 23.3812 -125.459 2 7 317
1968241N12259 1968 79 EP MM LIZA 1968-09-04 12:00:00 TS 23.6000 -125.700 45 hurdat_epa main 1164 1164 O________OO___ hurdat_epa EP121968 23.6000 -125.700 TS 45 0 23.6000 -125.700 TC 45 23.6000 -125.700 6 5 318
1968241N12259 1968 79 EP MM LIZA 1968-09-04 15:00:00 TS 23.7305 -125.822 main 1169 1164 P________PP___ EP121968 23.7224 -125.815 TS 35 0 23.7224 -125.815 TC 35 23.7630 -125.848 6 3 318
1968241N12259 1968 79 EP MM LIZA 1968-09-04 18:00:00 TS 23.8164 -125.912 25 hurdat_epa main 1173 1169 O________OP___ hurdat_epa EP121968 23.8000 -125.900 TD 25 -1 23.8000 -125.900 TC 25 23.8819 -125.958 6 3 314
1968241N12259 1968 79 EP MM LIZA 1968-09-04 21:00:00 TS 23.9179 -126.035 main 1178 1178 P________PP___ EP121968 23.9074 -126.028 TD 25 -1 23.9074 -126.028 TC 25 23.9599 -126.064 6 3 305
1968241N12259 1968 79 EP MM LIZA 1968-09-05 00:00:00 TS 24.0000 -126.200 25 hurdat_epa main 1193 1193 O________OO___ hurdat_epa EP121968 24.0000 -126.200 TD 25 -1 24.0000 -126.200 TC 25 24.0000 -126.200 6 4 292
1968241N12259 1968 79 EP MM LIZA 1968-09-05 03:00:00 TS 24.0687 -126.434 main 1207 1207 P________PP___ EP121968 24.0800 -126.435 TD 25 -1 24.0800 -126.435 TC 25 24.0234 -126.430 6 5 280
1968241N12259 1968 79 EP MM LIZA 1968-09-05 06:00:00 TS 24.0821 -126.699 25 hurdat_epa main 1235 1235 O________OP___ hurdat_epa EP121968 24.1000 -126.700 TD 25 -1 24.1000 -126.700 TC 25 24.0104 -126.693 6 5 263
1968241N12259 1968 79 EP MM LIZA 1968-09-05 09:00:00 TS 24.0114 -126.964 main 1268 1268 P________PP___ EP121968 24.0225 -126.965 TD 25 -1 24.0225 -126.965 TC 25 23.9671 -126.959 6 5 248
1968241N12259 1968 79 EP MM LIZA 1968-09-05 12:00:00 TS 23.9000 -127.200 25 hurdat_epa main 1291 1291 O________OO___ hurdat_epa EP121968 23.9000 -127.200 TD 25 -1 23.9000 -127.200 TC 25 23.9000 -127.200 6 4 241
1968241N12259 1968 79 EP MM LIZA 1968-09-05 15:00:00 TS 23.8030 -127.371 main 1314 1314 P________PP___ EP121968 23.7999 -127.365 TD 25 -1 23.7999 -127.365 TC 25 23.8151 -127.396 6 3 236
1968241N12259 1968 79 EP MM LIZA 1968-09-05 18:00:00 TS 23.7035 -127.511 25 hurdat_epa main 1327 1327 O________OP___ hurdat_epa EP121968 23.7000 -127.500 TD 25 -1 23.7000 -127.500 TC 25 23.7173 -127.553 6 3 232
1968241N12259 1968 79 EP MM LIZA 1968-09-05 21:00:00 TS 23.6022 -127.653 main 1351 1351 P________PP___ EP121968 23.6001 -127.645 TD 25 -1 23.6001 -127.645 TC 25 23.6108 -127.683 6 3 232
1968241N12259 1968 79 EP MM LIZA 1968-09-06 00:00:00 TS 23.5000 -127.800 25 hurdat_epa main 1364 O________OO___ hurdat_epa EP121968 23.5000 -127.800 TD 25 -1 23.5000 -127.800 TC 25 23.5000 -127.800 6 3 234

About IBTrACS Database

This database is a web-friendly format of International Best Track Archive for Climate Stewardship (IBTrACS), a global best track data archive curated by NOAA dating back to 1842.

Updated: 2021-12-03